Time;durP1;ratioP1;P1;durP2;ratioP2;P2;SDS_P1;SDS_P2;PMS_P1;PMS_P2;Temp;Humidity;BMP_temperature;BMP_pressure;BME280_temperature;BME280_humidity;BME280_pressure;Samples;Min_cycle;Max_cycle;Signal;HPM_P1;HPM_P2
2023/09/07 00:02:11;;;;;;;6.80;4.25;;;;;;;22.06;55.41;100543.16;5008042;28;20049;-44
2023/09/07 00:04:38;;;;;;;7.88;4.47;;;;;;;22.04;55.34;100538.88;5007082;28;20074;-47
2023/09/07 00:07:05;;;;;;;6.97;4.38;;;;;;;22.03;55.96;100548.59;5008912;28;20049;-41
2023/09/07 00:09:31;;;;;;;9.70;4.90;;;;;;;22.02;55.52;100546.88;5006787;28;20046;-45
2023/09/07 00:11:58;;;;;;;6.80;4.63;;;;;;;22.00;55.75;100543.47;5011251;28;20052;-44
2023/09/07 00:14:25;;;;;;;5.78;3.80;;;;;;;22.00;56.13;100535.53;5012044;28;20066;-44
2023/09/07 00:16:52;;;;;;;7.55;5.13;;;;;;;21.98;56.20;100534.72;5007450;28;20458;-45
2023/09/07 00:19:18;;;;;;;8.85;4.18;;;;;;;21.96;55.88;100531.31;5014092;28;20057;-45
2023/09/07 00:21:45;;;;;;;6.53;4.45;;;;;;;21.96;56.19;100536.59;5013376;28;20045;-44
2023/09/07 00:24:12;;;;;;;7.63;4.30;;;;;;;21.93;55.92;100539.34;5024594;28;20072;-46
2023/09/07 00:26:38;;;;;;;5.88;4.38;;;;;;;21.91;55.67;100538.56;5027774;28;20549;-48
2023/09/07 00:29:06;;;;;;;7.65;4.43;;;;;;;21.88;55.92;100539.56;5027776;28;20593;-44
2023/09/07 00:31:33;;;;;;;6.15;4.20;;;;;;;21.86;56.75;100527.34;5029477;28;20059;-47
2023/09/07 00:34:00;;;;;;;8.55;4.32;;;;;;;21.83;56.30;100530.97;5026499;28;20041;-49
2023/09/07 00:36:26;;;;;;;5.97;4.65;;;;;;;21.79;56.49;100519.69;5025689;28;20052;-44
2023/09/07 00:38:53;;;;;;;5.85;4.22;;;;;;;21.74;56.90;100526.94;5026857;28;20729;-43
2023/09/07 00:41:20;;;;;;;8.57;5.50;;;;;;;21.69;56.51;100524.47;5025042;28;20383;-44
2023/09/07 00:43:46;;;;;;;9.35;3.78;;;;;;;21.65;56.82;100533.44;5030493;28;20049;-43
2023/09/07 00:46:13;;;;;;;5.80;4.15;;;;;;;21.62;56.99;100530.94;5029717;28;20775;-46
2023/09/07 00:48:40;;;;;;;6.38;4.22;;;;;;;21.60;56.95;100529.28;5025546;28;20116;-44
2023/09/07 00:51:07;;;;;;;8.63;5.72;;;;;;;21.57;57.08;100525.00;5031217;28;20448;-46
2023/09/07 00:53:34;;;;;;;6.70;4.40;;;;;;;21.54;57.34;100527.75;5024960;28;20049;-44
2023/09/07 00:56:02;;;;;;;8.35;4.28;;;;;;;21.52;56.90;100533.06;5024912;28;20049;-49
2023/09/07 00:58:29;;;;;;;7.30;4.38;;;;;;;21.50;57.23;100534.94;5023905;28;20049;-47
2023/09/07 01:00:57;;;;;;;7.72;4.18;;;;;;;21.47;56.93;100529.78;5025205;28;20101;-46
2023/09/07 01:03:23;;;;;;;9.30;4.90;;;;;;;21.45;57.42;100529.00;5024686;28;20061;-47
2023/09/07 01:05:56;;;;;;;7.00;3.97;;;;;;;21.44;56.82;100524.63;5020500;28;20079;-47
2023/09/07 01:08:28;;;;;;;8.80;5.28;;;;;;;21.41;57.44;100514.25;5023943;28;20465;-44
2023/09/07 01:10:55;;;;;;;7.28;4.95;;;;;;;21.37;57.29;100512.63;5024504;28;20077;-46
2023/09/07 01:13:22;;;;;;;7.95;4.85;;;;;;;21.34;57.49;100518.88;5024773;28;20049;-49
2023/09/07 01:15:50;;;;;;;9.27;4.85;;;;;;;21.31;57.95;100522.50;5023742;28;20137;-45
2023/09/07 01:18:18;;;;;;;7.63;4.55;;;;;;;21.30;57.68;100527.81;5023935;28;20049;-46
2023/09/07 01:21:07;;;;;;;9.07;4.70;;;;;;;21.25;58.02;100520.13;5023133;28;20272;-43
2023/09/07 01:23:36;;;;;;;9.65;6.63;;;;;;;21.24;58.47;100531.56;5025661;28;20675;-48
2023/09/07 01:26:04;;;;;;;7.18;4.85;;;;;;;21.21;58.44;100521.13;5025079;28;20053;-44
2023/09/07 01:28:31;;;;;;;6.88;4.80;;;;;;;21.19;58.30;100531.78;5026565;28;20057;-43
2023/09/07 01:30:58;;;;;;;8.85;4.88;;;;;;;21.18;58.79;100526.56;5024353;28;20049;-43
2023/09/07 01:33:24;;;;;;;9.48;5.22;;;;;;;21.17;58.67;100527.44;5026228;28;20150;-43
2023/09/07 01:35:51;;;;;;;8.65;5.10;;;;;;;21.15;59.02;100529.31;5019681;28;20053;-45
2023/09/07 01:38:18;;;;;;;7.57;5.05;;;;;;;21.13;58.63;100531.13;5026189;28;20490;-46
2023/09/07 01:40:45;;;;;;;7.65;4.72;;;;;;;21.10;58.71;100526.00;5037490;28;20049;-42
2023/09/07 01:43:13;;;;;;;8.90;5.35;;;;;;;21.05;59.04;100527.00;5023576;28;20041;-41
2023/09/07 01:45:39;;;;;;;7.78;4.97;;;;;;;21.02;59.34;100521.03;5024500;28;20060;-43
2023/09/07 01:48:10;;;;;;;9.10;6.28;;;;;;;20.99;58.98;100521.13;5025758;28;20565;-43
2023/09/07 01:50:37;;;;;;;8.48;6.10;;;;;;;20.96;59.10;100513.34;5022488;28;20418;-46
2023/09/07 01:53:04;;;;;;;9.20;5.03;;;;;;;20.95;59.06;100519.53;5024184;28;20934;-43
2023/09/07 01:55:32;;;;;;;9.52;5.30;;;;;;;20.92;59.18;100518.75;5040273;28;20045;-45
2023/09/07 01:57:59;;;;;;;11.52;5.35;;;;;;;20.90;59.62;100511.81;5026002;28;20755;-45
2023/09/07 02:00:29;;;;;;;7.18;4.78;;;;;;;20.87;59.43;100507.50;5033454;28;20049;-46
2023/09/07 02:02:56;;;;;;;8.35;5.35;;;;;;;20.84;59.43;100504.97;5025344;28;20573;-41
2023/09/07 02:05:23;;;;;;;10.23;5.95;;;;;;;20.81;59.80;100500.69;5021000;28;20083;-46
2023/09/07 02:07:50;;;;;;;8.05;5.78;;;;;;;20.77;59.82;100509.63;5024855;28;20048;-44
2023/09/07 02:10:17;;;;;;;9.40;5.28;;;;;;;20.75;59.90;100506.22;5026192;28;20045;-45
2023/09/07 02:12:46;;;;;;;10.90;5.57;;;;;;;20.72;60.33;100501.06;5025847;28;20049;-45
2023/09/07 02:15:13;;;;;;;8.85;5.90;;;;;;;20.69;60.55;100503.81;5017983;28;20052;-47
2023/09/07 02:17:40;;;;;;;8.32;5.18;;;;;;;20.67;60.44;100513.56;5023385;28;20049;-46
2023/09/07 02:20:10;;;;;;;9.10;5.75;;;;;;;20.65;60.29;100499.56;5021597;28;20727;-46
2023/09/07 02:22:38;;;;;;;7.97;4.93;;;;;;;20.63;60.16;100502.25;5023695;28;20041;-43
2023/09/07 02:25:05;;;;;;;10.02;6.05;;;;;;;20.60;60.61;100504.16;5021926;28;20053;-46
2023/09/07 02:27:33;;;;;;;8.75;6.03;;;;;;;20.58;60.92;100505.97;5024216;28;20060;-41
2023/09/07 02:29:59;;;;;;;8.48;5.60;;;;;;;20.55;60.66;100505.19;5024201;28;20037;-45
2023/09/07 02:32:26;;;;;;;9.63;5.93;;;;;;;20.52;61.08;100497.41;5023502;28;20045;-47
2023/09/07 02:34:53;;;;;;;11.77;6.72;;;;;;;20.50;61.04;100501.84;5025229;28;20049;-44
2023/09/07 02:37:20;;;;;;;10.05;5.70;;;;;;;20.47;61.49;100496.69;5019808;28;20064;-45
2023/09/07 02:39:46;;;;;;;11.15;6.28;;;;;;;20.47;61.23;100490.59;5026708;28;20049;-46
2023/09/07 02:42:13;;;;;;;10.13;5.35;;;;;;;20.46;61.37;100491.53;5023390;28;20486;-46
2023/09/07 02:44:39;;;;;;;9.50;5.43;;;;;;;20.45;61.67;100489.78;5022249;28;20049;-41
2023/09/07 02:47:06;;;;;;;11.25;6.05;;;;;;;20.44;61.71;100488.09;5020610;28;20052;-44
2023/09/07 02:49:36;;;;;;;9.48;6.65;;;;;;;20.40;61.30;100492.63;5026753;28;20399;-44
2023/09/07 02:52:04;;;;;;;12.55;6.03;;;;;;;20.36;61.93;100483.13;5024459;28;20044;-41
2023/09/07 02:54:30;;;;;;;9.60;6.13;;;;;;;20.33;61.83;100485.84;5023955;28;20052;-44
2023/09/07 02:56:57;;;;;;;10.85;6.28;;;;;;;20.29;62.08;100485.09;5024650;28;20050;-46
2023/09/07 02:59:23;;;;;;;9.93;6.10;;;;;;;20.27;62.17;100485.16;5024182;28;20045;-45
2023/09/07 03:01:50;;;;;;;8.82;5.70;;;;;;;20.26;62.10;100478.19;5027063;28;20060;-44
2023/09/07 03:04:17;;;;;;;11.18;6.63;;;;;;;20.25;62.27;100478.22;5019301;28;20535;-46
2023/09/07 03:06:44;;;;;;;11.40;8.07;;;;;;;20.23;62.44;100475.66;5026923;28;20453;-47
2023/09/07 03:09:11;;;;;;;10.98;6.22;;;;;;;20.22;62.61;100473.94;5021596;28;20049;-42
2023/09/07 03:11:38;;;;;;;10.93;7.13;;;;;;;20.21;62.52;100472.25;5024809;28;20410;-46
2023/09/07 03:14:04;;;;;;;11.50;7.07;;;;;;;20.20;62.56;100473.16;5025443;28;20059;-49
2023/09/07 03:16:31;;;;;;;11.75;6.60;;;;;;;20.16;62.84;100476.78;5025561;28;20053;-47
2023/09/07 03:18:58;;;;;;;11.05;7.00;;;;;;;20.14;62.97;100473.38;5025387;28;20107;-49
2023/09/07 03:21:29;;;;;;;11.20;7.35;;;;;;;20.13;62.65;100471.66;5025656;28;20056;-48
2023/09/07 03:23:57;;;;;;;12.73;7.80;;;;;;;20.11;62.61;100462.97;5022156;28;20049;-47
2023/09/07 03:26:24;;;;;;;10.70;7.32;;;;;;;20.10;63.25;100466.50;5024150;28;20239;-48
2023/09/07 03:28:52;;;;;;;14.02;7.68;;;;;;;20.08;63.34;100463.94;5025686;28;20181;-48
2023/09/07 03:31:19;;;;;;;13.48;7.15;;;;;;;20.04;63.35;100468.44;5021367;28;20056;-42
2023/09/07 03:33:46;;;;;;;15.23;8.10;;;;;;;20.02;63.37;100470.25;5025314;28;20108;-44
2023/09/07 03:36:14;;;;;;;14.02;7.68;;;;;;;20.00;63.46;100466.81;5024490;28;20049;-43
2023/09/07 03:38:43;;;;;;;13.02;7.45;;;;;;;19.99;63.35;100470.38;5025748;28;20084;-42
2023/09/07 03:41:10;;;;;;;13.50;7.13;;;;;;;19.96;63.37;100465.19;5026104;28;20077;-45
2023/09/07 03:43:36;;;;;;;12.73;7.55;;;;;;;19.95;63.35;100463.47;5022820;28;20076;-48
2023/09/07 03:46:03;;;;;;;13.30;9.32;;;;;;;19.94;63.37;100461.78;5023523;28;20677;-45
2023/09/07 03:48:30;;;;;;;13.50;7.95;;;;;;;19.91;63.78;100456.63;5023905;28;20049;-46
2023/09/07 03:50:57;;;;;;;13.77;9.63;;;;;;;19.89;63.73;100453.16;5019172;28;20481;-40
2023/09/07 03:53:23;;;;;;;12.80;7.80;;;;;;;19.87;63.54;100455.00;5017025;28;20084;-44
2023/09/07 03:55:50;;;;;;;14.65;8.02;;;;;;;19.84;64.11;100452.47;5015358;28;20057;-50
2023/09/07 03:58:17;;;;;;;13.88;9.02;;;;;;;19.81;64.20;100449.94;5024593;28;20050;-48
2023/09/07 04:00:44;;;;;;;13.32;8.48;;;;;;;19.80;64.25;100443.00;5018244;28;20042;-46
2023/09/07 04:03:11;;;;;;;12.48;7.85;;;;;;;19.77;63.91;100442.19;5012470;28;20067;-45
2023/09/07 04:05:38;;;;;;;15.40;7.40;;;;;;;19.76;64.06;100440.47;5014661;28;20052;-44
2023/09/07 04:08:06;;;;;;;15.88;8.23;;;;;;;19.75;64.15;100446.63;5013732;28;20073;-43
2023/09/07 04:10:33;;;;;;;13.75;7.97;;;;;;;19.74;64.23;100444.94;5030936;28;20065;-42
2023/09/07 04:12:59;;;;;;;13.88;9.52;;;;;;;19.73;64.50;100443.19;5017392;28;20395;-43
2023/09/07 04:15:26;;;;;;;13.38;8.07;;;;;;;19.70;64.31;100443.31;5015054;28;20050;-46
2023/09/07 04:17:54;;;;;;;14.27;9.57;;;;;;;19.68;64.48;100444.25;5016629;28;20380;-46
2023/09/07 04:20:21;;;;;;;14.35;8.52;;;;;;;19.67;64.28;100448.69;5016208;28;20059;-45
2023/09/07 04:22:48;;;;;;;14.07;8.10;;;;;;;19.65;64.31;100445.22;5012989;28;20052;-43
2023/09/07 04:25:15;;;;;;;15.40;8.95;;;;;;;19.63;64.41;100449.69;5022064;28;20454;-46
2023/09/07 04:27:41;;;;;;;16.45;9.18;;;;;;;19.61;64.66;100443.63;5012419;28;20073;-46
2023/09/07 04:30:09;;;;;;;16.80;9.90;;;;;;;19.60;64.91;100441.91;5014649;28;20052;-45
2023/09/07 04:32:35;;;;;;;15.13;9.10;;;;;;;19.59;65.27;100445.47;5015961;28;20049;-44
2023/09/07 04:35:02;;;;;;;13.73;8.30;;;;;;;19.58;65.28;100438.47;5012429;28;20423;-45
2023/09/07 04:37:29;;;;;;;16.38;9.85;;;;;;;19.56;65.42;100438.53;5016280;28;20045;-42
2023/09/07 04:39:56;;;;;;;14.60;8.65;;;;;;;19.56;65.41;100435.91;5011564;28;20045;-44
2023/09/07 04:42:22;;;;;;;19.02;9.70;;;;;;;19.55;65.69;100433.34;5017550;28;20046;-43
2023/09/07 04:44:49;;;;;;;15.00;8.75;;;;;;;19.52;65.35;100429.91;5013631;28;20058;-46
2023/09/07 04:47:16;;;;;;;16.23;9.70;;;;;;;19.51;65.69;100436.06;5014694;28;20057;-49
2023/09/07 04:49:42;;;;;;;15.80;9.90;;;;;;;19.49;65.51;100432.63;5020806;28;20069;-40
2023/09/07 04:52:09;;;;;;;15.55;9.63;;;;;;;19.50;65.28;100441.38;5021964;28;20137;-48
2023/09/07 04:54:36;;;;;;;19.70;10.38;;;;;;;19.48;65.36;100440.56;5018785;28;20049;-48
2023/09/07 04:57:03;;;;;;;16.00;10.02;;;;;;;19.47;65.50;100447.59;5019498;28;20125;-43
2023/09/07 04:59:31;;;;;;;16.90;10.02;;;;;;;19.45;65.87;100441.50;5022021;28;20050;-47
2023/09/07 05:02:01;;;;;;;15.88;10.00;;;;;;;19.43;65.49;100448.59;5019637;28;20049;-48
2023/09/07 05:04:29;;;;;;;19.60;10.15;;;;;;;19.40;65.72;100451.31;5024149;28;20057;-46
2023/09/07 05:06:56;;;;;;;16.27;10.00;;;;;;;19.37;65.78;100435.66;5026150;28;20053;-42
2023/09/07 05:09:25;;;;;;;18.63;10.95;;;;;;;19.33;65.86;100441.94;5028730;28;20052;-50
2023/09/07 05:11:52;;;;;;;18.98;10.98;;;;;;;19.31;66.27;100438.47;5024443;28;20686;-43
2023/09/07 05:14:19;;;;;;;20.80;11.65;;;;;;;19.32;66.25;100442.84;5021975;28;20123;-47
2023/09/07 05:16:45;;;;;;;18.30;10.88;;;;;;;19.33;66.65;100449.81;5028149;28;20059;-45
2023/09/07 05:19:13;;;;;;;18.30;10.75;;;;;;;19.34;66.72;100451.53;5027760;28;20049;-48
2023/09/07 05:21:39;;;;;;;22.67;13.32;;;;;;;19.35;66.83;100448.84;5026342;28;20410;-42
2023/09/07 05:24:06;;;;;;;21.48;12.35;;;;;;;19.37;66.37;100435.66;5027262;28;20044;-49
2023/09/07 05:26:33;;;;;;;23.50;12.50;;;;;;;19.38;66.85;100442.63;5024174;28;20057;-44
2023/09/07 05:29:00;;;;;;;21.13;12.85;;;;;;;19.38;66.88;100445.25;5026678;28;20045;-47
2023/09/07 05:31:26;;;;;;;22.10;12.63;;;;;;;19.35;66.81;100433.09;5024863;28;20059;-41
2023/09/07 05:33:53;;;;;;;18.35;11.35;;;;;;;19.36;66.87;100440.06;5026919;28;20081;-49
2023/09/07 05:36:20;;;;;;;21.92;13.93;;;;;;;19.37;67.44;100443.53;5024894;28;20712;-45
2023/09/07 05:38:47;;;;;;;20.17;12.63;;;;;;;19.38;67.54;100447.88;5019088;28;20100;-43
2023/09/07 05:41:14;;;;;;;22.60;12.10;;;;;;;19.37;67.19;100431.28;5019923;28;20146;-41
2023/09/07 05:43:40;;;;;;;20.23;12.32;;;;;;;19.37;67.27;100436.53;5025141;28;20061;-42
2023/09/07 05:46:07;;;;;;;20.73;12.02;;;;;;;19.39;67.54;100434.69;5024526;28;20057;-48
2023/09/07 05:48:34;;;;;;;19.40;12.00;;;;;;;19.39;67.51;100433.88;5018264;28;20129;-47
2023/09/07 05:51:00;;;;;;;19.85;11.50;;;;;;;19.39;67.13;100436.50;5018487;28;20514;-48
2023/09/07 05:53:27;;;;;;;22.40;13.80;;;;;;;19.38;67.05;100440.00;5016991;28;20656;-45
2023/09/07 05:55:54;;;;;;;20.75;13.73;;;;;;;19.39;66.91;100444.38;5019251;28;20949;-45
2023/09/07 05:58:20;;;;;;;21.00;12.85;;;;;;;19.41;67.00;100449.56;5020290;28;20573;-47
2023/09/07 06:00:47;;;;;;;17.60;10.98;;;;;;;19.43;67.32;100448.59;5026068;28;20272;-44
2023/09/07 06:03:14;;;;;;;18.23;11.20;;;;;;;19.46;67.04;100448.50;5015668;28;20045;-45
2023/09/07 06:05:41;;;;;;;18.60;11.15;;;;;;;19.50;67.23;100458.00;5018151;28;20060;-42
2023/09/07 06:08:08;;;;;;;23.08;11.18;;;;;;;19.55;66.85;100459.63;5018664;28;20095;-42
2023/09/07 06:10:35;;;;;;;18.85;11.27;;;;;;;19.58;67.41;100462.97;5021213;28;20075;-47
2023/09/07 06:13:01;;;;;;;21.27;10.63;;;;;;;19.62;67.15;100461.13;5018116;28;20050;-44
2023/09/07 06:15:30;;;;;;;18.23;10.30;;;;;;;19.69;67.01;100470.50;5017692;28;20041;-45
2023/09/07 06:17:57;;;;;;;22.15;10.80;;;;;;;19.74;67.25;100471.22;5020879;28;20049;-43
2023/09/07 06:20:24;;;;;;;21.38;11.98;;;;;;;19.81;67.20;100473.59;5023162;28;20123;-46
2023/09/07 06:22:51;;;;;;;18.83;11.25;;;;;;;19.89;67.15;100474.19;5019762;28;20049;-44
2023/09/07 06:25:18;;;;;;;20.77;11.35;;;;;;;19.96;66.83;100473.06;5019349;28;20050;-45
2023/09/07 06:27:45;;;;;;;20.33;12.27;;;;;;;20.02;67.11;100467.63;5024740;28;20414;-47
2023/09/07 06:30:12;;;;;;;20.88;11.48;;;;;;;20.09;66.83;100464.81;5024864;28;20047;-45
2023/09/07 06:32:40;;;;;;;19.27;11.15;;;;;;;20.17;66.93;100468.00;5024232;28;20454;-44
2023/09/07 06:35:07;;;;;;;19.92;11.27;;;;;;;20.24;66.56;100468.63;5019098;28;20053;-47
2023/09/07 06:37:34;;;;;;;20.95;10.75;;;;;;;20.28;66.66;100465.84;5022785;28;20053;-45
2023/09/07 06:40:00;;;;;;;18.08;10.38;;;;;;;20.34;66.67;100469.16;5014569;28;20581;-47
2023/09/07 06:42:27;;;;;;;18.05;10.55;;;;;;;20.39;66.71;100462.81;5020399;28;20056;-54
2023/09/07 06:44:54;;;;;;;17.85;10.00;;;;;;;20.41;66.09;100462.75;5016715;28;20080;-50
2023/09/07 06:47:20;;;;;;;20.08;10.52;;;;;;;20.42;66.37;100460.06;5019154;28;20049;-46
2023/09/07 06:49:47;;;;;;;19.52;11.10;;;;;;;20.50;66.37;100469.44;5015522;28;20060;-46
2023/09/07 06:52:15;;;;;;;22.08;11.68;;;;;;;20.52;66.42;100468.47;5017993;28;20049;-45
2023/09/07 06:54:42;;;;;;;19.42;11.13;;;;;;;20.58;66.69;100471.78;5021891;28;20072;-43
2023/09/07 06:57:09;;;;;;;20.38;11.57;;;;;;;20.61;66.86;100476.94;5021022;28;20722;-44
2023/09/07 06:59:35;;;;;;;19.63;12.45;;;;;;;20.68;66.64;100473.16;5016566;28;20049;-48
2023/09/07 07:02:04;;;;;;;18.48;11.05;;;;;;;20.84;66.11;100464.66;5020198;28;20065;-45
2023/09/07 07:04:31;;;;;;;19.35;11.57;;;;;;;21.16;66.22;100473.94;5017183;28;20041;-45
2023/09/07 07:07:01;;;;;;;22.70;11.68;;;;;;;21.46;66.01;100475.38;5021745;28;20114;-50
2023/09/07 07:09:29;;;;;;;17.50;12.90;;;;;;;21.78;65.07;100467.06;5018880;28;20470;-48
2023/09/07 07:11:56;;;;;;;17.70;10.65;;;;;;;22.05;64.27;100472.03;5019228;28;20041;-47
2023/09/07 07:14:23;;;;;;;17.25;11.13;;;;;;;22.22;64.55;100479.19;5015752;28;20450;-45
2023/09/07 07:16:49;;;;;;;19.65;12.07;;;;;;;22.27;64.01;100481.63;5015746;28;20049;-45
2023/09/07 07:19:16;;;;;;;22.58;11.05;;;;;;;22.22;63.74;100481.81;5018471;28;20506;-46
2023/09/07 07:21:43;;;;;;;18.98;11.75;;;;;;;22.23;63.44;100480.94;5010953;28;20099;-42
2023/09/07 07:24:09;;;;;;;19.20;11.32;;;;;;;22.43;63.75;100479.16;5018138;28;20754;-46
2023/09/07 07:26:36;;;;;;;18.33;11.68;;;;;;;22.73;63.50;100479.53;5018488;28;20060;-47
2023/09/07 07:29:03;;;;;;;18.23;12.02;;;;;;;23.03;62.77;100486.06;5017458;28;20056;-47
2023/09/07 07:31:30;;;;;;;20.75;11.48;;;;;;;23.20;62.63;100476.50;5014569;28;20050;-48
2023/09/07 07:33:57;;;;;;;19.73;12.00;;;;;;;23.55;62.08;100481.84;5019601;28;20087;-45
2023/09/07 07:36:23;;;;;;;17.42;11.10;;;;;;;23.97;61.84;100476.19;5018126;28;20049;-48
2023/09/07 07:38:50;;;;;;;24.77;12.80;;;;;;;24.39;60.50;100474.03;5012411;28;20049;-47
2023/09/07 07:41:17;;;;;;;17.08;10.50;;;;;;;24.73;60.01;100468.66;5008013;28;20111;-47
2023/09/07 07:43:43;;;;;;;21.10;11.35;;;;;;;25.09;59.30;100478.13;5017155;28;20053;-42
2023/09/07 07:46:10;;;;;;;23.48;12.13;;;;;;;25.44;58.32;100468.22;5025146;28;20479;-44
2023/09/07 07:48:37;;;;;;;17.42;11.45;;;;;;;25.74;57.92;100475.34;5022886;28;20046;-49
2023/09/07 07:51:05;;;;;;;17.98;11.60;;;;;;;26.10;57.44;100471.38;5024576;28;20057;-43
2023/09/07 07:53:35;;;;;;;19.17;12.20;;;;;;;26.48;56.90;100466.47;5024171;28;20092;-46
2023/09/07 07:56:03;;;;;;;17.52;11.93;;;;;;;26.80;55.93;100464.41;5024862;28;20061;-44
2023/09/07 07:58:30;;;;;;;18.35;11.27;;;;;;;27.24;55.59;100468.69;5026202;28;20049;-49
2023/09/07 08:00:58;;;;;;;20.55;13.85;;;;;;;27.65;54.87;100469.53;5028189;28;20449;-49
2023/09/07 08:03:25;;;;;;;19.35;11.35;;;;;;;28.06;54.65;100467.66;5017851;28;20137;-49
2023/09/07 08:05:52;;;;;;;22.77;12.35;;;;;;;28.44;53.73;100476.56;5025452;28;20042;-47
2023/09/07 08:08:19;;;;;;;21.45;13.75;;;;;;;28.60;51.70;100476.28;5023841;28;20687;-45
2023/09/07 08:10:45;;;;;;;19.63;11.38;;;;;;;28.80;52.61;100466.84;5025209;28;20045;-45
2023/09/07 08:13:13;;;;;;;19.30;12.18;;;;;;;29.03;50.83;100471.47;5020963;28;20042;-48
2023/09/07 08:15:40;;;;;;;22.10;13.05;;;;;;;29.27;50.66;100471.44;5019380;28;20045;-51
2023/09/07 08:18:08;;;;;;;21.48;12.45;;;;;;;29.55;50.25;100461.34;5024951;28;20045;-47
2023/09/07 08:20:36;;;;;;;18.17;11.77;;;;;;;29.85;50.09;100451.13;5024525;28;20567;-47
2023/09/07 08:23:07;;;;;;;19.70;12.73;;;;;;;30.14;48.92;100455.97;5020784;28;20053;-46
2023/09/07 08:25:34;;;;;;;23.75;13.40;;;;;;;30.48;49.20;100463.97;5009500;28;20060;-47
2023/09/07 08:28:05;;;;;;;21.20;15.05;;;;;;;30.69;48.60;100476.53;5026520;28;20399;-50
2023/09/07 08:30:34;;;;;;;22.13;14.73;;;;;;;30.66;48.07;100474.13;5025841;28;20053;-50
2023/09/07 08:33:02;;;;;;;;;;;;;;;30.56;48.50;100475.84;5029120;28;20588;-52
2023/09/07 08:35:30;;;;;;;22.92;13.00;;;;;;;30.52;48.26;100469.91;5028859;28;19921;-43
2023/09/07 08:37:58;;;;;;;25.55;15.32;;;;;;;30.75;47.67;100465.41;5027241;28;20450;-47
2023/09/07 08:40:27;;;;;;;21.98;14.35;;;;;;;31.01;46.89;100470.41;5028640;28;20136;-47
2023/09/07 08:42:54;;;;;;;24.20;15.10;;;;;;;31.21;46.54;100465.22;5025296;28;20052;-46
2023/09/07 08:45:22;;;;;;;21.35;14.70;;;;;;;31.42;46.41;100464.41;5027639;28;20053;-48
2023/09/07 08:47:50;;;;;;;20.25;13.50;;;;;;;31.73;45.45;100464.44;5028025;28;20055;-50
2023/09/07 08:50:18;;;;;;;22.95;12.93;;;;;;;32.00;44.77;100465.72;5025128;28;20053;-47
2023/09/07 08:52:46;;;;;;;22.30;14.05;;;;;;;32.27;44.95;100471.47;5028162;28;20088;-46
2023/09/07 08:55:13;;;;;;;20.98;13.60;;;;;;;32.45;44.58;100460.91;5025592;28;20049;-50
2023/09/07 08:57:40;;;;;;;24.08;13.50;;;;;;;32.66;44.21;100465.38;5027439;28;20042;-47
2023/09/07 09:00:09;;;;;;;21.75;14.23;;;;;;;32.88;43.48;100458.91;5024001;28;20141;-49
2023/09/07 09:02:37;;;;;;;24.23;13.77;;;;;;;33.13;43.28;100461.19;5026137;28;20060;-50
2023/09/07 09:05:04;;;;;;;20.25;13.95;;;;;;;33.24;42.08;100461.03;5026920;28;20050;-45
2023/09/07 09:07:31;;;;;;;20.20;14.38;;;;;;;33.25;42.13;100459.19;5026463;28;20049;-51
2023/09/07 09:10:07;;;;;;;18.42;12.63;;;;;;;33.25;42.61;100454.69;5021894;28;20129;-47
2023/09/07 09:12:34;;;;;;;20.17;13.75;;;;;;;33.31;42.65;100454.13;5026521;28;20057;-45
2023/09/07 09:15:03;;;;;;;19.98;13.45;;;;;;;33.41;42.44;100447.88;5022979;28;20049;-51
2023/09/07 09:17:29;;;;;;;17.50;13.20;;;;;;;33.53;41.32;100445.88;5028420;28;20045;-50
2023/09/07 09:19:56;;;;;;;19.10;13.35;;;;;;;33.64;41.35;100444.88;5028263;28;20049;-47
2023/09/07 09:22:24;;;;;;;16.98;12.55;;;;;;;33.74;41.74;100437.66;5028879;28;20050;-47
2023/09/07 09:24:51;;;;;;;18.10;13.70;;;;;;;33.92;42.20;100436.84;5024723;28;20573;-49
2023/09/07 09:27:18;;;;;;;19.08;12.85;;;;;;;34.10;40.77;100436.94;5021544;28;20057;-47
2023/09/07 09:29:44;;;;;;;14.77;11.75;;;;;;;34.15;40.32;100437.34;5026145;28;20053;-49
2023/09/07 09:32:14;;;;;;;16.52;10.57;;;;;;;34.21;40.46;100439.41;5027403;28;20061;-49
2023/09/07 09:34:43;;;;;;;16.38;12.57;;;;;;;34.26;40.71;100433.59;5027082;28;20402;-50
2023/09/07 09:37:16;;;;;;;19.25;11.57;;;;;;;34.30;39.86;100423.38;5026384;28;20057;-50
2023/09/07 09:39:43;;;;;;;16.80;12.43;;;;;;;34.33;40.72;100429.31;5024190;28;20049;-48
2023/09/07 09:42:12;;;;;;;15.88;10.32;;;;;;;34.43;40.16;100428.41;5027185;28;20099;-45
2023/09/07 09:44:40;;;;;;;13.82;9.82;;;;;;;34.54;40.49;100428.19;5026799;28;20426;-46
2023/09/07 09:47:08;;;;;;;17.70;10.38;;;;;;;34.60;39.75;100430.25;5028973;28;20045;-48
2023/09/07 09:49:35;;;;;;;15.23;11.00;;;;;;;34.69;39.77;100420.47;5029737;28;20103;-50
2023/09/07 09:52:03;;;;;;;16.77;10.13;;;;;;;34.65;39.01;100424.47;5026720;28;20096;-47
2023/09/07 09:54:34;;;;;;;14.38;9.52;;;;;;;34.60;39.54;100421.34;5026615;28;20052;-44
2023/09/07 09:57:01;;;;;;;13.45;9.02;;;;;;;34.62;40.45;100430.94;5026724;28;20042;-48
2023/09/07 09:59:28;;;;;;;14.65;9.38;;;;;;;34.67;39.94;100427.84;5029091;28;20135;-50
2023/09/07 10:01:57;;;;;;;15.93;10.82;;;;;;;34.73;39.81;100418.31;5027115;28;20502;-49
2023/09/07 10:04:24;;;;;;;13.20;11.02;;;;;;;34.86;39.96;100424.16;5028518;28;20466;-48
2023/09/07 10:06:56;;;;;;;17.80;9.50;;;;;;;34.95;39.50;100429.59;5027624;28;20057;-49
2023/09/07 10:09:22;;;;;;;13.00;9.15;;;;;;;34.96;40.05;100431.28;5029953;28;20071;-50
2023/09/07 10:11:53;;;;;;;15.00;9.52;;;;;;;34.97;39.65;100427.59;5026730;28;20064;-49
2023/09/07 10:14:20;;;;;;;14.23;9.10;;;;;;;35.00;39.61;100421.91;5026170;28;20136;-48
2023/09/07 10:16:49;;;;;;;17.83;8.32;;;;;;;35.09;40.12;100423.63;5025751;28;20053;-51
2023/09/07 10:19:19;;;;;;;12.88;8.45;;;;;;;35.20;39.36;100421.72;5024921;28;20519;-44
2023/09/07 10:21:46;;;;;;;12.20;8.07;;;;;;;35.36;39.12;100421.00;5024047;28;20045;-47
2023/09/07 10:24:35;;;;;;;13.63;8.35;;;;;;;35.54;38.88;100417.41;5034421;28;20038;-48
2023/09/07 10:27:04;;;;;;;10.45;8.40;;;;;;;35.70;38.77;100419.38;5027876;28;20053;-48
2023/09/07 10:29:52;;;;;;;13.75;8.20;;;;;;;35.81;38.42;100419.09;5026027;28;20045;-49
2023/09/07 10:32:22;;;;;;;10.50;7.43;;;;;;;35.78;38.13;100414.03;5025927;28;20143;-50
2023/09/07 10:34:50;;;;;;;12.77;8.73;;;;;;;35.78;38.29;100413.16;5025481;28;20064;-49
2023/09/07 10:37:17;;;;;;;9.65;7.28;;;;;;;35.80;38.35;100406.63;5024504;28;20485;-51
2023/09/07 10:39:45;;;;;;;9.45;6.93;;;;;;;35.86;38.33;100405.13;5030007;28;20053;-49
2023/09/07 10:42:22;;;;;;;11.20;7.38;;;;;;;35.86;38.11;100405.97;5024909;28;20051;-46
2023/09/07 10:44:49;;;;;;;11.52;6.65;;;;;;;35.79;38.10;100402.22;5020817;28;20056;-48
2023/09/07 10:47:16;;;;;;;10.98;7.63;;;;;;;35.87;38.34;100402.25;5025687;28;20498;-48
2023/09/07 10:49:43;;;;;;;10.90;7.32;;;;;;;35.79;37.59;100396.03;5028489;28;20081;-45
2023/09/07 10:52:10;;;;;;;11.77;7.32;;;;;;;35.71;37.83;100391.41;5022484;28;20057;-47
2023/09/07 10:54:37;;;;;;;10.63;7.07;;;;;;;35.68;38.04;100397.97;5022792;28;20076;-48
2023/09/07 10:57:13;;;;;;;12.40;7.38;;;;;;;35.67;37.91;100390.06;5026465;28;20293;-49
2023/09/07 10:59:47;;;;;;;11.13;6.45;;;;;;;35.64;38.37;100391.19;5040810;28;20095;-49
2023/09/07 11:02:15;;;;;;;14.35;8.05;;;;;;;35.70;37.61;100390.59;5027718;28;20049;-44
2023/09/07 11:04:43;;;;;;;11.63;9.13;;;;;;;35.73;37.76;100384.88;5026039;28;20402;-47
2023/09/07 11:07:11;;;;;;;11.20;7.47;;;;;;;35.63;37.71;100376.88;5027319;28;20650;-48
2023/09/07 11:09:42;;;;;;;13.18;7.13;;;;;;;35.62;38.06;100377.88;5026546;28;20646;-52
2023/09/07 11:12:14;;;;;;;11.15;7.95;;;;;;;35.57;38.29;100379.38;5025841;28;20069;-44
2023/09/07 11:14:41;;;;;;;11.43;7.78;;;;;;;35.55;37.92;100376.84;5027116;28;20056;-45
2023/09/07 11:17:08;;;;;;;9.15;6.20;;;;;;;35.56;38.07;100378.53;5024768;28;20057;-45
2023/09/07 11:19:35;;;;;;;16.17;6.45;;;;;;;35.62;38.11;100366.25;5025100;28;20053;-49